Terminal Aerodrome Forecast
Issued by NWS Northern Indiana

Home | Current Version | Previous Version | Text Only | Print | Product List | Glossary On
Versions: 1 2 3 4 5 6 7 8 9 10 11 12 13 14 15
000
FTUS43 KIWX 302325
TAFFWA
TAF
KFWA 302325Z 0100/0124 07008KT P6SM VCSH OVC015
      TEMPO 0100/0103 SCT015 OVC040
     FM010500 09004KT 4SM BR BKN008 OVC015
     FM011000 VRB03KT 1SM BR OVC006
     FM011400 15005KT 4SM BR OVC010
     FM011800 16006KT P6SM -SHRA OVC040=

USA.gov is the U.S. government's official web portal to all federal, state and local government web resources and services.